Weather at RAF Ballykelly Air Base (abandoned) [CLOSED]

Public forecast

Using degrees Celsius for public forecast. Weather courtesy of forecast.io.

Closest aviation weather report (METAR) to RAF Ballykelly Air Base (abandoned)

Report is more than 2 hours old.

Closest report is City of Derry Airport, 5.0 nm (9.2 km) WSW. Retrieved 2022/06/28 19:50 UTC (5 hours ago):

EGAE 281950Z 23006KT 190V250 9999 VCSH FEW022 SCT035 16/10 Q1003

Closest aviation forecast (TAF) to RAF Ballykelly Air Base (abandoned)

Closest forecast is Belfast International Airport, 36.8 nm (68.2 km) SE. Retrieved 2022-06-29 00:00 UTC (24 minutes ago):

TAF EGAA 282253Z 2900/2924 17009KT 9999 FEW015 SCT030 PROB30 TEMPO 2900/2911 6000 RA TEMPO 2906/2911 BKN014 TEMPO 2911/2919 7000 SHRA